Time;durP1;ratioP1;P1;durP2;ratioP2;P2;SDS_P1;SDS_P2;PMS_P1;PMS_P2;Temp;Humidity;BMP_temperature;BMP_pressure;BME280_temperature;BME280_humidity;BME280_pressure;Samples;Min_cycle;Max_cycle;Signal;HPM_P1;HPM_P2
2022/01/11 00:00:07;;;;;;;82.35;51.95;;;21.20;94.90;;;;;;4183565;28;20044;-65
2022/01/11 00:02:15;;;;;;;74.47;52.20;;;21.10;95.00;;;;;;4185175;28;20037;-65
2022/01/11 00:04:20;;;;;;;74.82;50.05;;;21.10;95.20;;;;;;4174923;28;20045;-66
2022/01/11 00:08:34;;;;;;;90.43;56.92;;;21.20;95.20;;;;;;4163558;28;20049;-66
2022/01/11 00:11:02;;;;;;;88.90;59.03;;;21.20;95.20;;;;;;4159649;28;20081;-66
2022/01/11 00:13:11;;;;;;;95.28;57.75;;;21.20;95.20;;;;;;4175376;28;20122;-66
2022/01/11 00:15:16;;;;;;;83.28;56.55;;;21.10;95.20;;;;;;4177270;28;20053;-66
2022/01/11 00:17:22;;;;;;;84.95;55.22;;;21.30;95.10;;;;;;4192992;28;20071;-66
2022/01/11 00:19:28;;;;;;;83.00;58.28;;;21.20;95.10;;;;;;4194797;28;20044;-66
2022/01/11 00:21:37;;;;;;;165.07;64.22;;;21.20;95.20;;;;;;4194288;28;20064;-64
2022/01/11 00:25:46;;;;;;;89.25;58.20;;;21.40;95.00;;;;;;4194918;28;20076;-65
2022/01/11 00:27:51;;;;;;;87.90;57.67;;;21.30;95.10;;;;;;4202414;28;20045;-65
2022/01/11 00:30:01;;;;;;;92.30;54.78;;;21.40;95.00;;;;;;4198778;28;20065;-65
2022/01/11 00:32:11;;;;;;;87.00;55.53;;;21.40;94.90;;;;;;4203971;28;20113;-65
2022/01/11 00:34:19;;;;;;;78.32;49.80;;;21.40;95.00;;;;;;4202082;28;20076;-65
2022/01/11 00:36:31;;;;;;;79.70;50.28;;;21.20;95.20;;;;;;4203421;28;20394;-65
2022/01/11 00:38:38;;;;;;;74.63;50.83;;;21.30;95.20;;;;;;4201983;28;20044;-66
2022/01/11 00:40:47;;;;;;;72.00;48.42;;;21.30;95.10;;;;;;4204895;28;20048;-66
2022/01/11 00:42:52;;;;;;;82.60;53.00;;;21.40;94.80;;;;;;4204323;28;20052;-65
2022/01/11 00:44:57;;;;;;;79.65;52.33;;;21.40;94.70;;;;;;4200726;28;20046;-66
2022/01/11 00:47:02;;;;;;;82.85;52.50;;;21.40;95.00;;;;;;4205053;28;20048;-66
2022/01/11 00:49:07;;;;;;;84.60;50.97;;;21.40;95.00;;;;;;4203663;28;20123;-65
2022/01/11 00:51:13;;;;;;;80.50;50.13;;;21.50;94.80;;;;;;4203330;28;20051;-65
2022/01/11 00:53:18;;;;;;;74.40;49.67;;;21.70;94.70;;;;;;4204472;28;20044;-65
2022/01/11 00:55:23;;;;;;;80.57;52.58;;;21.70;94.70;;;;;;4202036;28;20466;-65
2022/01/11 00:57:27;;;;;;;83.47;52.40;;;21.60;95.10;;;;;;4204577;28;20050;-65
2022/01/11 00:59:32;;;;;;;78.97;50.63;;;21.70;94.80;;;;;;4204568;28;20126;-65
2022/01/11 01:01:37;;;;;;;78.93;51.42;;;21.80;94.70;;;;;;4203602;28;20041;-65
2022/01/11 01:03:42;;;;;;;81.30;55.47;;;21.80;94.50;;;;;;4198789;28;20302;-65
2022/01/11 01:05:47;;;;;;;85.68;56.30;;;21.90;94.40;;;;;;4193440;28;20056;-65
2022/01/11 01:07:53;;;;;;;78.80;52.03;;;22.00;94.50;;;;;;4199093;28;20544;-65
2022/01/11 01:10:12;;;;;;;84.60;53.33;;;22.00;94.20;;;;;;4199321;28;20147;-65
2022/01/11 01:12:18;;;;;;;83.47;54.72;;;22.10;94.20;;;;;;4194815;28;20036;-65
2022/01/11 01:14:23;;;;;;;75.75;53.33;;;22.20;94.30;;;;;;4194285;28;20052;-65
2022/01/11 01:16:28;;;;;;;93.00;56.58;;;22.20;94.00;;;;;;4192925;28;20549;-65
2022/01/11 01:18:42;;;;;;;86.97;54.05;;;22.30;94.10;;;;;;4194360;28;20049;-65
2022/01/11 01:20:46;;;;;;;87.50;57.92;;;22.40;93.60;;;;;;4196057;28;20051;-65
2022/01/11 01:22:53;;;;;;;88.88;57.10;;;22.40;93.40;;;;;;4196495;28;20044;-64
2022/01/11 01:24:57;;;;;;;96.30;62.80;;;22.40;93.40;;;;;;4196384;28;20041;-65
2022/01/11 01:27:04;;;;;;;88.53;59.10;;;22.40;93.30;;;;;;4152021;28;20566;-64
2022/01/11 01:29:09;;;;;;;74.40;50.60;;;22.50;93.20;;;;;;4202889;28;20040;-65
2022/01/11 01:31:13;;;;;;;76.30;51.60;;;22.50;93.20;;;;;;4190595;28;20064;-64
2022/01/11 01:33:18;;;;;;;79.25;51.75;;;22.60;93.10;;;;;;4193829;28;20037;-64
2022/01/11 01:35:27;;;;;;;76.97;49.97;;;22.60;93.20;;;;;;4194352;28;20512;-64
2022/01/11 01:37:32;;;;;;;67.75;47.67;;;22.70;93.10;;;;;;4196064;28;20029;-64
2022/01/11 01:39:36;;;;;;;70.57;49.08;;;22.70;93.20;;;;;;4195334;28;20139;-64
2022/01/11 01:41:44;;;;;;;74.22;47.72;;;22.80;93.30;;;;;;4195732;28;20068;-64
2022/01/11 01:43:53;;;;;;;70.82;48.40;;;22.80;93.60;;;;;;4193656;28;20049;-65
2022/01/11 01:46:00;;;;;;;67.03;47.30;;;22.90;93.80;;;;;;4193622;28;20264;-64
2022/01/11 01:48:06;;;;;;;68.93;48.42;;;22.90;93.90;;;;;;4188481;28;20057;-64
2022/01/11 01:50:11;;;;;;;71.00;48.35;;;22.90;94.00;;;;;;4193608;28;20387;-64
2022/01/11 01:52:16;;;;;;;72.13;47.45;;;23.00;94.10;;;;;;4195131;28;20068;-64
2022/01/11 01:54:23;;;;;;;66.32;46.30;;;23.00;94.20;;;;;;4191496;28;20040;-63
2022/01/11 01:56:28;;;;;;;72.93;47.63;;;23.10;94.30;;;;;;4192535;28;20048;-64
2022/01/11 01:58:32;;;;;;;68.97;47.65;;;23.10;94.00;;;;;;4176405;28;20450;-64
2022/01/11 02:00:50;;;;;;;71.35;48.58;;;23.20;93.80;;;;;;4174262;28;20044;-64
2022/01/11 02:03:04;;;;;;;69.45;48.83;;;23.20;93.60;;;;;;4192475;28;20446;-64
2022/01/11 02:05:08;;;;;;;68.85;46.30;;;23.20;93.60;;;;;;4193406;28;20155;-64
2022/01/11 02:07:13;;;;;;;65.28;43.42;;;23.30;93.60;;;;;;4192832;28;20048;-63
2022/01/11 02:09:18;;;;;;;62.45;43.13;;;23.30;93.60;;;;;;4175200;28;20075;-65
2022/01/11 02:11:23;;;;;;;61.85;40.67;;;23.30;93.10;;;;;;4176687;28;20040;-65
2022/01/11 02:13:28;;;;;;;61.92;40.05;;;23.40;93.10;;;;;;4176739;28;20045;-63
2022/01/11 02:15:33;;;;;;;84.13;41.78;;;23.40;93.00;;;;;;4192301;28;20045;-63
2022/01/11 02:17:38;;;;;;;74.28;37.63;;;23.50;92.90;;;;;;4176270;28;20045;-64
2022/01/11 02:19:44;;;;;;;56.88;34.75;;;23.50;92.80;;;;;;4174842;28;20386;-65
2022/01/11 02:21:48;;;;;;;54.35;32.75;;;23.60;92.50;;;;;;4176431;28;20041;-68
2022/01/11 02:23:54;;;;;;;52.88;31.00;;;23.60;92.30;;;;;;4176514;28;20080;-68
2022/01/11 02:26:00;;;;;;;49.38;30.83;;;23.70;92.30;;;;;;4173559;28;20055;-67
2022/01/11 02:28:06;;;;;;;42.97;25.25;;;23.70;92.30;;;;;;4186597;28;20056;-67
2022/01/11 02:30:11;;;;;;;40.15;22.55;;;23.80;91.90;;;;;;4177334;28;20131;-67
2022/01/11 02:32:15;;;;;;;32.47;21.42;;;23.90;91.40;;;;;;4177498;28;20055;-68
2022/01/11 02:34:21;;;;;;;31.63;18.63;;;24.00;90.50;;;;;;4191609;28;20049;-68
2022/01/11 02:36:37;;;;;;;24.30;16.92;;;24.00;89.80;;;;;;4208823;28;20046;-68
2022/01/11 02:39:01;;;;;;;29.08;15.13;;;24.10;89.00;;;;;;4191400;28;20045;-67
2022/01/11 02:41:05;;;;;;;21.90;13.57;;;24.10;88.90;;;;;;4193972;28;20037;-68
2022/01/11 02:43:10;;;;;;;23.00;12.40;;;24.20;88.20;;;;;;4193296;28;20037;-68
2022/01/11 02:45:19;;;;;;;22.52;11.77;;;24.30;87.80;;;;;;4192983;28;20052;-66
2022/01/11 02:47:23;;;;;;;20.23;11.43;;;24.30;87.70;;;;;;4177441;28;20065;-67
2022/01/11 02:49:30;;;;;;;18.80;11.50;;;24.40;88.00;;;;;;4193616;28;20146;-66
2022/01/11 02:51:41;;;;;;;17.38;10.90;;;24.40;88.20;;;;;;4193867;28;20558;-66
2022/01/11 02:53:48;;;;;;;19.80;10.50;;;24.50;88.10;;;;;;4190305;28;20101;-66
2022/01/11 02:55:52;;;;;;;16.30;10.80;;;24.50;87.80;;;;;;4191054;28;20040;-67
2022/01/11 02:57:58;;;;;;;18.20;11.30;;;24.50;87.90;;;;;;4190535;28;20044;-67
2022/01/11 03:00:07;;;;;;;17.52;11.55;;;24.60;88.10;;;;;;4193313;28;20059;-66
2022/01/11 03:02:12;;;;;;;17.88;10.80;;;24.70;88.20;;;;;;4190587;28;20041;-66
2022/01/11 03:04:19;;;;;;;20.88;11.82;;;24.70;88.00;;;;;;4192143;28;20048;-66
2022/01/11 03:06:24;;;;;;;22.48;11.60;;;24.80;88.10;;;;;;4194209;28;20036;-65
2022/01/11 03:08:31;;;;;;;25.50;12.23;;;24.80;88.10;;;;;;4193426;28;20080;-66
2022/01/11 03:10:37;;;;;;;23.02;12.25;;;24.90;87.90;;;;;;4190770;28;20530;-66
2022/01/11 03:12:43;;;;;;;22.83;12.23;;;24.90;87.80;;;;;;4193947;28;20123;-66
2022/01/11 03:14:48;;;;;;;18.13;10.98;;;24.90;87.70;;;;;;4192763;28;20461;-66
2022/01/11 03:16:53;;;;;;;18.52;11.18;;;25.00;87.30;;;;;;4193937;28;20072;-67
2022/01/11 03:18:57;;;;;;;18.60;12.57;;;25.10;87.50;;;;;;4194590;28;20436;-67
2022/01/11 03:21:02;;;;;;;23.13;13.60;;;25.10;87.40;;;;;;4191985;28;20051;-67
2022/01/11 03:23:06;;;;;;;21.40;12.27;;;25.20;87.50;;;;;;4188042;28;20053;-67
2022/01/11 03:25:12;;;;;;;19.45;11.68;;;25.20;88.10;;;;;;4192361;28;20062;-67
2022/01/11 03:27:17;;;;;;;19.50;11.13;;;25.20;87.90;;;;;;4190238;28;20123;-67
2022/01/11 03:29:22;;;;;;;20.00;11.32;;;25.30;87.50;;;;;;4189834;28;20542;-66
2022/01/11 03:31:27;;;;;;;19.08;11.65;;;25.30;87.20;;;;;;4190344;28;20076;-66
2022/01/11 03:33:31;;;;;;;18.02;11.68;;;25.30;87.00;;;;;;4191665;28;20064;-67
2022/01/11 03:35:37;;;;;;;17.83;11.45;;;25.40;86.90;;;;;;4190301;28;20044;-66
2022/01/11 03:37:42;;;;;;;22.15;11.60;;;25.50;86.70;;;;;;4191069;28;20044;-66
2022/01/11 03:39:47;;;;;;;17.65;12.15;;;25.50;86.90;;;;;;4204394;28;20134;-68
2022/01/11 03:41:52;;;;;;;22.25;12.40;;;25.60;86.90;;;;;;4190254;28;20511;-67
2022/01/11 03:43:56;;;;;;;23.88;13.02;;;25.60;86.00;;;;;;4183490;28;20277;-66
2022/01/11 03:46:01;;;;;;;18.58;11.90;;;25.70;85.60;;;;;;4189781;28;20523;-67
2022/01/11 03:48:06;;;;;;;20.20;12.13;;;25.70;85.90;;;;;;4189714;28;20060;-66
2022/01/11 03:50:12;;;;;;;17.50;11.57;;;25.70;86.40;;;;;;4190270;28;20166;-65
2022/01/11 03:52:16;;;;;;;20.23;13.18;;;25.80;85.70;;;;;;4173612;28;20034;-66
2022/01/11 03:54:27;;;;;;;19.75;13.80;;;25.80;85.60;;;;;;4189398;28;20048;-66
2022/01/11 03:56:51;;;;;;;24.52;13.32;;;25.90;85.40;;;;;;4191869;28;20079;-66
2022/01/11 03:59:01;;;;;;;22.88;13.57;;;25.90;85.80;;;;;;4198357;28;20095;-65
2022/01/11 04:01:06;;;;;;;21.17;12.85;;;26.00;84.40;;;;;;4196058;28;20044;-66
2022/01/11 04:03:11;;;;;;;26.88;14.02;;;26.00;84.70;;;;;;4198173;28;20070;-65
2022/01/11 04:05:17;;;;;;;25.80;15.88;;;26.00;84.80;;;;;;4200477;28;20040;-67
2022/01/11 04:07:24;;;;;;;20.50;15.18;;;26.10;84.50;;;;;;4208588;28;20423;-66
2022/01/11 04:09:28;;;;;;;22.40;14.50;;;26.20;84.30;;;;;;4190772;28;20040;-68
2022/01/11 04:11:33;;;;;;;27.23;15.35;;;26.20;84.20;;;;;;4192475;28;20067;-66
2022/01/11 04:13:41;;;;;;;19.90;14.85;;;26.30;83.90;;;;;;4198420;28;20062;-67
2022/01/11 04:15:46;;;;;;;25.65;15.60;;;26.30;83.60;;;;;;4179920;28;20071;-66
2022/01/11 04:17:51;;;;;;;25.23;15.55;;;26.30;83.60;;;;;;4199223;28;20124;-67
2022/01/11 04:19:58;;;;;;;23.63;15.48;;;26.40;83.70;;;;;;4199486;28;20408;-67
2022/01/11 04:22:03;;;;;;;24.55;15.77;;;26.50;83.70;;;;;;4200537;28;20041;-66
2022/01/11 04:24:11;;;;;;;24.20;15.40;;;26.50;83.90;;;;;;4197985;28;20059;-66
2022/01/11 04:26:16;;;;;;;19.20;13.38;;;26.60;83.20;;;;;;4200192;28;20066;-67
2022/01/11 04:28:23;;;;;;;20.80;12.70;;;26.60;81.80;;;;;;4192473;28;20135;-66
2022/01/11 04:30:28;;;;;;;20.90;13.23;;;26.60;81.80;;;;;;4192969;28;20480;-68
2022/01/11 04:32:33;;;;;;;20.02;12.45;;;26.60;82.30;;;;;;4194399;28;20048;-68
2022/01/11 04:34:38;;;;;;;16.90;11.15;;;26.60;82.20;;;;;;4193369;28;20105;-68
2022/01/11 04:36:43;;;;;;;18.73;12.30;;;26.70;82.00;;;;;;4194693;28;20367;-67
2022/01/11 04:38:48;;;;;;;20.27;11.77;;;26.70;82.30;;;;;;4193495;28;20048;-67
2022/01/11 04:40:52;;;;;;;23.77;12.93;;;26.80;81.60;;;;;;4193548;28;20040;-67
2022/01/11 04:42:58;;;;;;;23.65;12.95;;;26.90;81.20;;;;;;4193875;28;20051;-67
2022/01/11 04:45:03;;;;;;;20.27;13.18;;;27.00;81.50;;;;;;4192289;28;20036;-67
2022/01/11 04:47:08;;;;;;;25.65;12.88;;;26.90;81.00;;;;;;4193547;28;20048;-66
2022/01/11 04:49:12;;;;;;;19.20;12.65;;;26.90;81.10;;;;;;4190870;28;20671;-66
2022/01/11 04:51:19;;;;;;;20.08;13.50;;;27.00;80.20;;;;;;4193935;28;20056;-66
2022/01/11 04:53:24;;;;;;;20.58;13.63;;;27.00;80.30;;;;;;4190915;28;20041;-67
2022/01/11 04:55:31;;;;;;;19.92;13.10;;;27.10;81.00;;;;;;4194312;28;20114;-67
2022/01/11 04:57:37;;;;;;;20.55;12.98;;;27.10;81.20;;;;;;4177451;28;20048;-66
2022/01/11 04:59:41;;;;;;;18.92;12.40;;;27.20;80.20;;;;;;4193377;28;20094;-67
2022/01/11 05:01:46;;;;;;;19.45;12.73;;;27.20;80.70;;;;;;4190628;28;20045;-67
2022/01/11 05:03:52;;;;;;;20.60;12.82;;;27.30;81.00;;;;;;4192990;28;20051;-67
2022/01/11 05:05:56;;;;;;;25.77;12.82;;;27.30;81.10;;;;;;4192873;28;20052;-68
2022/01/11 05:08:02;;;;;;;20.33;12.85;;;27.30;80.00;;;;;;4192984;28;20406;-67
2022/01/11 05:10:07;;;;;;;22.88;12.25;;;27.50;78.90;;;;;;4190772;28;20041;-67
2022/01/11 05:12:11;;;;;;;21.75;12.00;;;27.50;79.10;;;;;;4199233;28;20048;-67
2022/01/11 05:14:17;;;;;;;18.50;12.80;;;27.50;80.30;;;;;;4200437;28;20051;-67
2022/01/11 05:16:26;;;;;;;23.27;12.55;;;27.50;80.30;;;;;;4200262;28;20446;-67
2022/01/11 05:18:35;;;;;;;20.70;12.65;;;27.50;78.70;;;;;;4198377;28;20167;-67
2022/01/11 05:20:40;;;;;;;19.25;11.98;;;27.60;79.30;;;;;;4200175;28;20376;-68
2022/01/11 05:22:45;;;;;;;19.42;11.68;;;27.60;79.30;;;;;;4200348;28;20517;-68
2022/01/11 05:24:49;;;;;;;18.33;11.00;;;27.60;78.40;;;;;;4182005;28;20033;-67
2022/01/11 05:26:55;;;;;;;19.33;12.77;;;27.70;78.30;;;;;;4193977;28;20044;-68
2022/01/11 05:28:59;;;;;;;21.58;13.43;;;27.70;78.60;;;;;;4194163;28;20072;-68
2022/01/11 05:31:04;;;;;;;22.33;14.05;;;27.70;78.70;;;;;;4196028;28;20415;-67
2022/01/11 05:33:08;;;;;;;18.67;12.68;;;27.70;78.50;;;;;;4194961;28;20060;-67
2022/01/11 05:35:14;;;;;;;16.88;11.10;;;27.80;78.80;;;;;;4196106;28;20056;-67
2022/01/11 05:37:18;;;;;;;18.92;11.23;;;27.90;77.60;;;;;;4196296;28;20128;-67
2022/01/11 05:39:24;;;;;;;14.93;9.68;;;27.90;78.10;;;;;;4194681;28;20049;-67
2022/01/11 05:41:30;;;;;;;19.70;10.68;;;27.90;76.90;;;;;;4192689;28;20059;-67
2022/01/11 05:43:35;;;;;;;13.45;8.82;;;28.00;76.90;;;;;;4178901;28;20044;-67
2022/01/11 05:45:41;;;;;;;13.73;9.05;;;28.00;75.70;;;;;;4194516;28;20410;-68
2022/01/11 05:47:48;;;;;;;14.82;9.45;;;28.00;76.10;;;;;;4192293;28;20040;-68
2022/01/11 05:49:53;;;;;;;13.02;9.60;;;28.00;76.10;;;;;;4178835;28;20037;-68
2022/01/11 05:51:58;;;;;;;16.90;9.45;;;28.00;76.30;;;;;;4178715;28;20132;-66
2022/01/11 05:54:02;;;;;;;15.75;9.68;;;28.00;76.50;;;;;;4195811;28;20036;-66
2022/01/11 05:56:07;;;;;;;18.83;8.50;;;28.10;76.50;;;;;;4192046;28;20048;-67
2022/01/11 05:58:14;;;;;;;18.50;8.60;;;28.20;76.00;;;;;;4194590;28;20044;-67
2022/01/11 06:00:20;;;;;;;13.75;8.23;;;28.30;75.20;;;;;;4192642;28;20064;-67
2022/01/11 06:02:24;;;;;;;13.80;8.55;;;28.30;75.50;;;;;;4196160;28;20040;-67
2022/01/11 06:04:30;;;;;;;15.50;8.82;;;28.30;75.70;;;;;;4193436;28;20036;-67
2022/01/11 06:06:35;;;;;;;18.60;9.45;;;28.40;75.40;;;;;;4194387;28;20383;-67
2022/01/11 06:08:39;;;;;;;17.42;9.80;;;28.50;74.70;;;;;;4194619;28;20054;-67
2022/01/11 06:10:44;;;;;;;16.75;10.32;;;28.50;74.20;;;;;;4194388;28;20045;-67
2022/01/11 06:12:49;;;;;;;16.48;9.18;;;28.60;74.20;;;;;;4194255;28;20594;-66
2022/01/11 06:14:55;;;;;;;16.45;9.07;;;28.50;75.10;;;;;;4194061;28;20506;-66
2022/01/11 06:16:59;;;;;;;14.80;9.20;;;28.60;74.80;;;;;;4194309;28;20437;-66
2022/01/11 06:19:05;;;;;;;13.07;9.48;;;28.50;74.00;;;;;;4194075;28;20106;-66
2022/01/11 06:21:29;;;;;;;16.27;9.57;;;28.50;72.40;;;;;;4194384;28;20048;-67
2022/01/11 06:23:33;;;;;;;14.30;8.38;;;28.50;73.60;;;;;;4194115;28;20053;-67
2022/01/11 06:25:38;;;;;;;15.18;7.97;;;28.50;72.80;;;;;;4194742;28;20075;-67
2022/01/11 06:27:43;;;;;;;10.50;7.60;;;28.60;72.60;;;;;;4195507;28;20144;-66
2022/01/11 06:29:51;;;;;;;14.13;8.38;;;28.60;72.70;;;;;;4192424;28;20590;-67
2022/01/11 06:31:57;;;;;;;21.48;8.93;;;28.70;73.20;;;;;;4192129;28;20076;-67
2022/01/11 06:34:02;;;;;;;15.80;8.65;;;28.90;74.00;;;;;;4193958;28;20044;-67
2022/01/11 06:36:10;;;;;;;11.32;8.35;;;28.80;73.90;;;;;;4195375;28;20121;-67
2022/01/11 06:38:14;;;;;;;12.93;8.45;;;28.80;74.10;;;;;;4192876;28;20032;-67
2022/01/11 06:40:28;;;;;;;14.40;8.77;;;28.90;73.00;;;;;;4194127;28;20102;-66
2022/01/11 06:42:35;;;;;;;12.65;7.88;;;28.80;73.00;;;;;;4208812;28;20039;-66
2022/01/11 06:44:41;;;;;;;11.98;8.07;;;28.80;73.40;;;;;;4178281;28;20050;-67
2022/01/11 06:46:47;;;;;;;12.45;8.07;;;28.80;72.80;;;;;;4195327;28;20036;-67
2022/01/11 06:48:54;;;;;;;12.90;8.30;;;28.80;73.20;;;;;;4208198;28;20052;-67
2022/01/11 06:50:58;;;;;;;13.20;8.45;;;28.80;73.40;;;;;;4193754;28;20076;-66
2022/01/11 06:53:11;;;;;;;13.35;8.90;;;28.90;73.60;;;;;;4193887;28;20131;-66
2022/01/11 06:55:21;;;;;;;14.65;8.73;;;29.00;72.70;;;;;;4193695;28;20496;-67
2022/01/11 06:57:27;;;;;;;12.20;8.00;;;29.00;72.50;;;;;;4193778;28;20049;-68
2022/01/11 06:59:31;;;;;;;13.27;8.13;;;29.00;72.50;;;;;;4193564;28;20044;-67
2022/01/11 07:01:39;;;;;;;15.73;7.03;;;29.10;72.70;;;;;;4191708;28;20036;-66
2022/01/11 07:03:58;;;;;;;13.30;7.25;;;29.10;72.50;;;;;;4192508;28;20094;-67
2022/01/11 07:06:05;;;;;;;11.63;7.40;;;29.20;72.40;;;;;;4192196;28;20056;-67
2022/01/11 07:08:11;;;;;;;12.63;7.05;;;29.20;72.10;;;;;;4193202;28;20090;-69
2022/01/11 07:10:16;;;;;;;14.63;7.25;;;29.20;71.50;;;;;;4191752;28;20053;-69
2022/01/11 07:12:22;;;;;;;15.30;6.80;;;29.30;71.20;;;;;;4193189;28;20051;-67
2022/01/11 07:14:27;;;;;;;10.25;7.43;;;29.30;71.20;;;;;;4193878;28;20041;-67
2022/01/11 07:16:32;;;;;;;9.50;7.10;;;29.30;71.60;;;;;;4193241;28;20573;-67
2022/01/11 07:18:37;;;;;;;9.65;7.00;;;29.20;71.20;;;;;;4192089;28;20044;-68
2022/01/11 07:20:43;;;;;;;12.30;7.32;;;29.30;71.60;;;;;;4194526;28;20510;-67
2022/01/11 07:22:54;;;;;;;11.43;7.10;;;29.30;71.80;;;;;;4208365;28;20539;-67
2022/01/11 07:24:59;;;;;;;13.60;8.27;;;29.30;71.50;;;;;;4192975;28;20132;-66
2022/01/11 07:27:03;;;;;;;15.35;8.82;;;29.40;72.30;;;;;;4192959;28;20055;-66
2022/01/11 07:29:09;;;;;;;13.00;8.40;;;29.40;70.60;;;;;;4192422;28;20058;-65
2022/01/11 07:31:13;;;;;;;11.93;7.45;;;29.40;71.80;;;;;;4192482;28;20060;-65
2022/01/11 07:33:23;;;;;;;12.52;7.25;;;29.40;71.80;;;;;;4192940;28;20044;-67
2022/01/11 07:35:29;;;;;;;12.40;7.30;;;29.40;71.50;;;;;;4192582;28;20037;-66
2022/01/11 07:37:35;;;;;;;10.27;7.15;;;29.40;70.50;;;;;;4175485;28;20098;-66
2022/01/11 07:39:41;;;;;;;11.77;7.20;;;29.50;70.60;;;;;;4188874;28;20037;-67
2022/01/11 07:41:50;;;;;;;14.13;7.88;;;29.40;70.80;;;;;;4208099;28;20040;-67
2022/01/11 07:44:17;;;;;;;10.63;7.30;;;29.40;71.50;;;;;;4192255;28;20040;-67
2022/01/11 07:46:24;;;;;;;12.20;6.80;;;29.50;71.90;;;;;;4176155;28;20175;-68
2022/01/11 07:48:29;;;;;;;13.82;7.55;;;29.50;71.70;;;;;;4192110;28;20040;-67
2022/01/11 07:50:40;;;;;;;11.52;6.85;;;29.50;71.80;;;;;;4176080;28;20037;-67
2022/01/11 07:52:44;;;;;;;11.07;7.00;;;29.50;71.40;;;;;;4192488;28;20052;-68
2022/01/11 07:54:49;;;;;;;13.15;7.43;;;29.50;72.10;;;;;;4192336;28;20091;-68
2022/01/11 07:56:56;;;;;;;10.70;6.97;;;29.50;72.60;;;;;;4192623;28;20052;-67
2022/01/11 07:59:02;;;;;;;17.38;7.03;;;29.60;72.70;;;;;;4192866;28;20423;-68
2022/01/11 08:01:11;;;;;;;13.80;7.35;;;29.60;71.40;;;;;;4194916;28;20066;-68
2022/01/11 08:03:18;;;;;;;11.23;7.25;;;29.60;72.10;;;;;;4194978;28;20044;-67
2022/01/11 08:05:36;;;;;;;17.02;7.60;;;29.60;71.50;;;;;;4214438;28;20059;-68
2022/01/11 08:07:42;;;;;;;14.75;8.02;;;29.70;71.90;;;;;;4193520;28;20091;-68
2022/01/11 08:09:53;;;;;;;13.68;7.45;;;29.70;72.10;;;;;;4194409;28;20072;-68
2022/01/11 08:11:59;;;;;;;14.55;7.82;;;29.70;72.20;;;;;;4195426;28;20134;-67
2022/01/11 08:14:03;;;;;;;12.52;7.97;;;29.70;71.80;;;;;;4192010;28;20049;-68
2022/01/11 08:16:10;;;;;;;20.45;10.18;;;29.70;70.80;;;;;;4193083;28;20086;-67
2022/01/11 08:18:14;;;;;;;19.88;9.25;;;29.80;70.10;;;;;;4195269;28;20047;-67
2022/01/11 08:20:21;;;;;;;17.75;9.70;;;29.80;70.90;;;;;;4192281;28;20495;-67
2022/01/11 08:22:28;;;;;;;15.88;8.93;;;29.80;71.30;;;;;;4195202;28;20028;-69
2022/01/11 08:24:33;;;;;;;17.48;8.02;;;29.80;71.00;;;;;;4193513;28;20044;-68
2022/01/11 08:26:39;;;;;;;14.32;8.15;;;29.80;70.90;;;;;;4193642;28;20041;-68
2022/01/11 08:28:44;;;;;;;11.07;7.78;;;29.80;70.90;;;;;;4192401;28;20055;-68
2022/01/11 08:30:51;;;;;;;12.65;7.90;;;29.90;71.10;;;;;;4192151;28;20395;-68
2022/01/11 08:32:56;;;;;;;10.98;7.10;;;29.90;71.00;;;;;;4192276;28;20131;-68
2022/01/11 08:35:01;;;;;;;13.50;7.63;;;29.90;70.90;;;;;;4192789;28;20056;-70
2022/01/11 08:37:06;;;;;;;11.82;7.22;;;29.90;71.10;;;;;;4192352;28;20095;-68
2022/01/11 08:39:11;;;;;;;14.75;8.15;;;30.00;71.00;;;;;;4193702;28;20052;-69
2022/01/11 08:41:19;;;;;;;13.88;7.82;;;30.00;70.60;;;;;;4192564;28;20056;-68
2022/01/11 08:43:25;;;;;;;13.32;7.60;;;29.90;70.80;;;;;;4193131;28;20041;-68
2022/01/11 08:45:31;;;;;;;11.35;7.57;;;29.90;70.90;;;;;;4192184;28;20427;-68
2022/01/11 08:47:41;;;;;;;12.57;7.85;;;29.90;70.60;;;;;;4192650;28;20059;-68
2022/01/11 08:49:46;;;;;;;9.88;7.18;;;29.90;71.00;;;;;;4191888;28;20040;-68
2022/01/11 08:51:51;;;;;;;16.35;7.82;;;29.90;71.00;;;;;;4193139;28;20215;-68
2022/01/11 08:53:56;;;;;;;10.38;7.57;;;29.80;71.30;;;;;;4194266;28;20099;-68
2022/01/11 08:56:01;;;;;;;14.75;7.40;;;29.80;71.20;;;;;;4197723;28;20150;-68
2022/01/11 08:58:09;;;;;;;13.60;7.60;;;29.80;71.70;;;;;;4197715;28;20041;-67
2022/01/11 09:00:18;;;;;;;16.80;7.85;;;29.70;72.10;;;;;;4194772;28;20052;-68
2022/01/11 09:02:35;;;;;;;15.68;8.20;;;29.80;72.20;;;;;;4197549;28;20437;-67
2022/01/11 09:04:40;;;;;;;12.15;7.43;;;29.80;71.90;;;;;;4195388;28;20050;-67
2022/01/11 09:06:50;;;;;;;14.27;7.32;;;29.70;71.80;;;;;;4193695;28;20040;-67
2022/01/11 09:08:55;;;;;;;14.20;7.22;;;29.60;71.50;;;;;;4195502;28;20068;-67
2022/01/11 09:11:00;;;;;;;13.15;7.85;;;29.60;72.50;;;;;;4197475;28;20052;-67
2022/01/11 09:13:06;;;;;;;22.17;11.05;;;29.60;72.10;;;;;;4192985;28;20413;-67
2022/01/11 09:15:12;;;;;;;15.50;9.85;;;29.60;72.50;;;;;;4197181;28;20131;-66
2022/01/11 09:17:16;;;;;;;19.20;11.38;;;29.60;72.40;;;;;;4196010;28;20040;-67
2022/01/11 09:19:22;;;;;;;23.50;13.95;;;29.60;72.40;;;;;;4194315;28;20243;-67
2022/01/11 09:21:26;;;;;;;23.63;12.38;;;29.60;73.00;;;;;;4194451;28;20514;-66
2022/01/11 09:23:31;;;;;;;24.88;13.15;;;29.60;72.40;;;;;;4195175;28;20067;-69
2022/01/11 09:25:38;;;;;;;21.50;11.88;;;29.60;72.70;;;;;;4194856;28;20075;-65
2022/01/11 09:27:46;;;;;;;19.45;10.88;;;29.60;72.60;;;;;;4195364;28;20526;-66
2022/01/11 09:29:52;;;;;;;15.95;10.80;;;29.60;72.80;;;;;;4194883;28;20053;-66
2022/01/11 09:31:59;;;;;;;21.00;12.73;;;29.60;73.00;;;;;;4195487;28;20460;-67
2022/01/11 09:34:06;;;;;;;15.13;10.55;;;29.60;73.30;;;;;;4195106;28;20529;-68
2022/01/11 09:36:10;;;;;;;13.57;8.98;;;29.60;72.50;;;;;;4196692;28;20115;-67
2022/01/11 09:38:15;;;;;;;11.95;8.68;;;29.60;71.70;;;;;;4195279;28;20043;-67
2022/01/11 09:40:23;;;;;;;11.77;8.68;;;29.60;71.30;;;;;;4179787;28;20052;-68
2022/01/11 09:42:36;;;;;;;16.50;9.63;;;29.50;71.90;;;;;;4195296;28;20063;-67
2022/01/11 09:44:44;;;;;;;18.48;11.23;;;29.60;72.40;;;;;;4195168;28;20037;-67
2022/01/11 09:46:49;;;;;;;18.77;10.48;;;29.50;72.70;;;;;;4194877;28;20098;-67
2022/01/11 09:48:54;;;;;;;20.73;10.43;;;29.50;72.90;;;;;;4195229;28;20109;-67
2022/01/11 09:51:01;;;;;;;17.63;10.63;;;29.50;73.20;;;;;;4195134;28;20049;-67
2022/01/11 09:53:07;;;;;;;16.48;10.10;;;29.50;73.30;;;;;;4194816;28;20127;-68
2022/01/11 09:55:21;;;;;;;15.52;10.50;;;29.50;73.20;;;;;;4179094;28;20072;-69
2022/01/11 09:57:26;;;;;;;15.93;10.02;;;29.50;73.00;;;;;;4195008;28;20049;-67
2022/01/11 09:59:55;;;;;;;14.98;10.70;;;29.40;72.80;;;;;;4195608;28;20129;-66
2022/01/11 10:02:13;;;;;;;20.98;10.13;;;29.40;73.20;;;;;;4195108;28;20244;-67
2022/01/11 10:04:35;;;;;;;16.17;9.57;;;29.40;73.30;;;;;;4193955;28;20281;-66
2022/01/11 10:06:54;;;;;;;16.02;9.07;;;29.40;73.60;;;;;;4195028;28;20135;-67
2022/01/11 10:09:12;;;;;;;14.07;9.05;;;29.30;73.70;;;;;;4192154;28;20048;-67
2022/01/11 10:11:34;;;;;;;17.02;8.27;;;29.30;74.10;;;;;;4208240;28;20047;-68
2022/01/11 10:13:40;;;;;;;25.05;9.20;;;29.30;74.50;;;;;;4192071;28;20032;-65
2022/01/11 10:15:52;;;;;;;17.80;8.73;;;29.20;75.00;;;;;;4194027;28;20480;-65
2022/01/11 10:17:57;;;;;;;20.92;9.65;;;29.20;75.30;;;;;;4190594;28;20386;-65
2022/01/11 10:20:13;;;;;;;18.42;9.07;;;29.20;75.60;;;;;;4191667;28;20407;-66
2022/01/11 10:22:25;;;;;;;15.02;8.82;;;29.20;75.90;;;;;;4207074;28;20075;-66
2022/01/11 10:24:44;;;;;;;19.02;9.60;;;29.10;76.10;;;;;;4208880;28;20052;-66
2022/01/11 10:27:12;;;;;;;18.45;8.77;;;29.10;76.30;;;;;;4193378;28;20506;-65
2022/01/11 10:29:24;;;;;;;24.77;10.82;;;29.10;76.40;;;;;;4208140;28;20055;-66
2022/01/11 10:31:34;;;;;;;13.75;9.52;;;29.10;77.20;;;;;;4191739;28;20077;-67
2022/01/11 10:33:45;;;;;;;14.82;10.10;;;29.10;76.70;;;;;;4192154;28;20075;-66
2022/01/11 10:35:50;;;;;;;21.30;11.48;;;29.10;76.90;;;;;;4174078;28;20052;-67
2022/01/11 10:38:07;;;;;;;22.25;11.32;;;29.10;77.00;;;;;;4190679;28;20051;-66
2022/01/11 10:40:15;;;;;;;22.27;11.88;;;29.00;77.00;;;;;;4190506;28;20051;-67
2022/01/11 10:42:33;;;;;;;47.70;14.05;;;29.00;77.80;;;;;;4191051;28;20238;-66
2022/01/11 10:44:51;;;;;;;51.88;14.98;;;29.00;77.50;;;;;;4173699;28;20072;-67
2022/01/11 10:47:02;;;;;;;49.00;14.35;;;29.00;77.60;;;;;;4173190;28;20041;-66
2022/01/11 10:49:08;;;;;;;40.33;15.07;;;29.00;77.80;;;;;;4172033;28;20555;-66
2022/01/11 10:51:14;;;;;;;30.42;14.38;;;28.90;78.30;;;;;;4157163;28;20049;-67